createdAt,value
2022-10-24T00:01:27.748Z,88.40
2022-10-24T00:03:54.475Z,89.10
2022-10-24T00:06:21.730Z,89.40
2022-10-24T00:08:49.431Z,89.30
2022-10-24T00:11:22.512Z,89.80
2022-10-24T00:13:50.222Z,90.50
2022-10-24T00:16:17.160Z,90.60
2022-10-24T00:18:43.825Z,90.80
2022-10-24T00:21:11.328Z,91.00
2022-10-24T00:23:37.997Z,91.30
2022-10-24T00:26:05.526Z,91.20
2022-10-24T00:28:35.143Z,91.30
2022-10-24T00:31:02.669Z,90.70
2022-10-24T00:33:29.421Z,90.70
2022-10-24T00:35:56.101Z,90.20
2022-10-24T00:38:22.724Z,90.20
2022-10-24T00:40:49.772Z,90.10
2022-10-24T00:43:19.789Z,90.00
2022-10-24T00:45:55.614Z,90.20
2022-10-24T00:48:36.741Z,90.50
2022-10-24T00:51:14.382Z,90.30
2022-10-24T00:53:47.465Z,90.40
2022-10-24T00:56:16.371Z,90.30
2022-10-24T00:58:44.700Z,90.00
2022-10-24T01:01:12.461Z,90.00
2022-10-24T01:03:39.246Z,90.00
2022-10-24T01:06:37.498Z,90.40
2022-10-24T01:09:22.189Z,90.30
2022-10-24T01:12:10.659Z,90.20
2022-10-24T01:14:58.626Z,90.60
2022-10-24T01:17:42.152Z,90.80
2022-10-24T01:20:29.686Z,91.20
2022-10-24T01:23:21.101Z,91.40
2022-10-24T01:26:18.494Z,91.40
2022-10-24T01:29:16.674Z,91.60
2022-10-24T01:31:57.428Z,91.60
2022-10-24T01:34:30.252Z,91.90
2022-10-24T01:37:03.006Z,91.90
2022-10-24T01:39:34.475Z,92.00
2022-10-24T01:42:03.389Z,92.00
2022-10-24T01:44:44.208Z,92.20
2022-10-24T01:47:22.067Z,92.40
2022-10-24T01:50:00.580Z,92.60
2022-10-24T01:52:31.279Z,92.30
2022-10-24T01:54:57.908Z,92.50
2022-10-24T01:57:32.871Z,92.60
2022-10-24T01:59:59.634Z,92.70
2022-10-24T02:02:43.418Z,92.90
2022-10-24T02:05:24.000Z,92.90
2022-10-24T02:07:56.199Z,92.80
2022-10-24T02:10:28.084Z,92.70
2022-10-24T02:13:01.601Z,93.30
2022-10-24T02:15:36.415Z,93.60
2022-10-24T02:18:03.704Z,93.40
2022-10-24T02:20:46.074Z,93.40
2022-10-24T02:23:52.147Z,93.40
2022-10-24T02:26:31.353Z,93.80
2022-10-24T02:29:03.155Z,94.00
2022-10-24T02:31:35.979Z,94.40
2022-10-24T02:34:05.790Z,94.30
2022-10-24T02:36:34.929Z,95.10
2022-10-24T02:39:05.326Z,95.80
2022-10-24T02:41:35.420Z,96.70
2022-10-24T02:44:03.681Z,97.40
2022-10-24T02:46:31.929Z,97.90
2022-10-24T02:49:01.206Z,98.60
2022-10-24T02:51:33.153Z,98.70
2022-10-24T02:54:00.971Z,98.70
2022-10-24T02:56:28.303Z,98.80
2022-10-24T02:58:55.016Z,98.70
2022-10-24T03:01:21.853Z,99.00
2022-10-24T03:03:48.683Z,99.40
2022-10-24T03:06:15.313Z,99.80
2022-10-24T03:08:41.919Z,99.80
2022-10-24T03:11:08.554Z,99.90
2022-10-24T03:13:35.150Z,99.90
2022-10-24T03:16:01.835Z,99.90
2022-10-24T03:18:28.434Z,99.90
2022-10-24T03:20:55.017Z,99.90
2022-10-24T03:23:22.059Z,99.90
2022-10-24T03:25:48.786Z,99.90
2022-10-24T03:28:15.457Z,99.90
2022-10-24T03:30:42.078Z,99.90
2022-10-24T03:33:08.678Z,99.90
2022-10-24T03:35:37.013Z,99.90
2022-10-24T03:38:03.756Z,99.90
2022-10-24T03:40:30.401Z,99.90
2022-10-24T03:42:57.012Z,99.90
2022-10-24T03:45:23.625Z,99.90
2022-10-24T03:47:50.235Z,99.90
2022-10-24T03:50:17.199Z,99.90
2022-10-24T03:52:44.214Z,99.90
2022-10-24T03:55:11.952Z,99.90
2022-10-24T03:57:38.915Z,99.90
2022-10-24T04:00:06.415Z,99.90
2022-10-24T04:02:33.003Z,99.90
2022-10-24T04:04:59.725Z,99.90
2022-10-24T04:07:26.336Z,99.90
2022-10-24T04:09:52.919Z,99.90
2022-10-24T04:12:19.562Z,99.90
2022-10-24T04:14:46.278Z,99.90
2022-10-24T04:17:12.867Z,99.90
2022-10-24T04:19:39.511Z,99.90
2022-10-24T04:22:06.186Z,99.90
2022-10-24T04:24:33.153Z,99.90
2022-10-24T04:26:59.919Z,99.90
2022-10-24T04:29:26.595Z,99.90
2022-10-24T04:31:53.184Z,99.90
2022-10-24T04:34:19.775Z,99.90
2022-10-24T04:36:46.362Z,99.90
2022-10-24T04:39:12.992Z,99.90
2022-10-24T04:41:39.570Z,99.90
2022-10-24T04:44:06.176Z,99.90
2022-10-24T04:46:32.878Z,99.90
2022-10-24T04:48:59.550Z,99.90
2022-10-24T04:51:26.233Z,99.90
2022-10-24T04:53:52.914Z,99.90
2022-10-24T04:56:19.852Z,99.90
2022-10-24T04:58:46.617Z,99.90
2022-10-24T05:01:13.483Z,99.90
2022-10-24T05:03:40.249Z,99.90
2022-10-24T05:06:06.969Z,99.90
2022-10-24T05:08:33.584Z,99.90
2022-10-24T05:11:00.539Z,99.90
2022-10-24T05:13:27.198Z,99.90
2022-10-24T05:15:53.828Z,99.90
2022-10-24T05:18:20.451Z,99.90
2022-10-24T05:20:47.042Z,99.90
2022-10-24T05:23:13.722Z,99.90
2022-10-24T05:25:40.340Z,99.90
2022-10-24T05:28:06.912Z,99.90
2022-10-24T05:30:33.553Z,99.90
2022-10-24T05:33:00.189Z,99.90
2022-10-24T05:35:26.830Z,99.90
2022-10-24T05:37:53.415Z,99.90
2022-10-24T05:40:20.126Z,99.90
2022-10-24T05:42:47.108Z,99.90
2022-10-24T05:45:13.951Z,99.90
2022-10-24T05:47:40.663Z,99.90
2022-10-24T05:50:08.168Z,99.90
2022-10-24T05:52:36.344Z,99.90
2022-10-24T05:55:08.250Z,99.90
2022-10-24T05:57:36.458Z,99.90
2022-10-24T06:00:06.021Z,99.90
2022-10-24T06:02:32.756Z,99.90
2022-10-24T06:04:59.548Z,99.90
2022-10-24T06:07:26.203Z,99.90
2022-10-24T06:09:52.935Z,99.90
2022-10-24T06:12:19.695Z,99.90
2022-10-24T06:14:46.435Z,99.90
2022-10-24T06:17:13.121Z,99.90
2022-10-24T06:19:40.524Z,99.90
2022-10-24T06:22:08.560Z,99.90
2022-10-24T06:24:38.404Z,99.90
2022-10-24T06:27:05.858Z,99.90
2022-10-24T06:29:32.977Z,99.90
2022-10-24T06:31:59.917Z,99.90
2022-10-24T06:34:26.693Z,99.90
2022-10-24T06:36:53.802Z,99.90
2022-10-24T06:39:20.644Z,99.90
2022-10-24T06:41:47.275Z,99.90
2022-10-24T06:44:13.997Z,99.90
2022-10-24T06:46:40.612Z,99.90
2022-10-24T06:49:07.687Z,99.90
2022-10-24T06:51:34.324Z,99.90
2022-10-24T06:54:00.927Z,99.90
2022-10-24T06:56:27.611Z,99.90
2022-10-24T06:58:54.370Z,99.90
2022-10-24T07:01:23.857Z,99.90
2022-10-24T07:03:51.334Z,99.90
2022-10-24T07:06:26.747Z,99.90
2022-10-24T07:08:55.137Z,99.90
2022-10-24T07:11:21.820Z,99.90
2022-10-24T07:13:48.961Z,99.90
2022-10-24T07:16:15.664Z,99.90
2022-10-24T07:18:42.633Z,99.90
2022-10-24T07:21:14.800Z,99.90
2022-10-24T07:23:41.761Z,99.90
2022-10-24T07:26:11.308Z,99.90
2022-10-24T07:28:39.254Z,99.90
2022-10-24T07:31:06.911Z,99.90
2022-10-24T07:33:34.417Z,99.90
2022-10-24T07:36:01.036Z,99.90
2022-10-24T07:38:27.693Z,99.90
2022-10-24T07:40:54.340Z,99.90
2022-10-24T07:43:20.996Z,99.90
2022-10-24T07:45:51.183Z,99.90
2022-10-24T07:48:19.513Z,99.90
2022-10-24T07:50:47.520Z,99.90
2022-10-24T07:53:14.681Z,99.90
2022-10-24T07:55:43.169Z,99.90
2022-10-24T07:58:11.120Z,99.90
2022-10-24T08:00:41.316Z,99.90
2022-10-24T08:03:11.694Z,99.90
2022-10-24T08:05:40.066Z,99.90
2022-10-24T08:10:53.774Z,99.90
2022-10-24T08:13:20.490Z,99.90
2022-10-24T08:15:47.273Z,99.90
2022-10-24T08:18:14.117Z,99.90
2022-10-24T08:20:40.749Z,99.90
2022-10-24T08:23:07.571Z,99.90
2022-10-24T08:25:34.468Z,99.90
2022-10-24T08:28:03.951Z,99.90
2022-10-24T08:30:33.359Z,99.90
2022-10-24T08:33:00.036Z,99.90
2022-10-24T08:35:26.768Z,99.90
2022-10-24T08:37:53.367Z,99.90
2022-10-24T08:40:20.825Z,99.90
2022-10-24T08:42:48.675Z,99.90
2022-10-24T08:45:43.067Z,99.90
2022-10-24T08:48:19.027Z,99.90
2022-10-24T08:50:51.410Z,99.90
2022-10-24T08:53:24.228Z,99.90
2022-10-24T08:55:55.922Z,99.90
2022-10-24T08:58:35.310Z,99.90
2022-10-24T09:01:07.133Z,99.90
2022-10-24T09:04:02.085Z,99.90
2022-10-24T09:06:32.021Z,99.90
2022-10-24T09:09:02.744Z,99.90
2022-10-24T09:11:40.852Z,99.90
2022-10-24T09:14:16.897Z,99.90
2022-10-24T09:16:45.762Z,99.90
2022-10-24T09:19:19.321Z,99.90
2022-10-24T09:21:47.518Z,99.90
2022-10-24T09:24:23.449Z,99.90
2022-10-24T09:26:50.334Z,99.90
2022-10-24T09:29:17.223Z,99.90
2022-10-24T09:31:43.984Z,99.90
2022-10-24T09:34:11.835Z,99.90
2022-10-24T09:36:39.757Z,99.90
2022-10-24T09:39:37.436Z,99.90
2022-10-24T09:42:04.231Z,99.90
2022-10-24T09:44:43.772Z,99.90
2022-10-24T09:47:28.555Z,99.90
2022-10-24T09:49:55.517Z,99.90
2022-10-24T09:52:28.374Z,99.90
2022-10-24T09:55:20.450Z,99.90
2022-10-24T09:57:48.054Z,99.90
2022-10-24T10:00:27.897Z,99.90
2022-10-24T10:03:31.066Z,99.90
2022-10-24T10:06:02.149Z,99.90
2022-10-24T10:08:31.700Z,99.90
2022-10-24T10:11:03.109Z,99.90
2022-10-24T10:13:31.269Z,99.90
2022-10-24T10:16:05.701Z,99.90
2022-10-24T10:18:42.601Z,99.90
2022-10-24T10:21:12.056Z,99.90
2022-10-24T10:23:53.850Z,99.90
2022-10-24T10:26:44.975Z,99.90
2022-10-24T10:29:18.082Z,99.90
2022-10-24T10:31:50.433Z,99.90
2022-10-24T10:34:23.993Z,99.90
2022-10-24T10:36:59.622Z,99.90
2022-10-24T10:40:00.591Z,99.90
2022-10-24T10:42:35.507Z,99.90
2022-10-24T10:45:35.749Z,99.90
2022-10-24T10:48:23.977Z,99.90
2022-10-24T10:50:53.705Z,99.90
2022-10-24T10:53:41.687Z,99.90
2022-10-24T10:56:23.271Z,99.90
2022-10-24T10:59:29.302Z,99.90
2022-10-24T11:02:20.861Z,99.90
2022-10-24T11:05:14.845Z,99.90
2022-10-24T11:08:17.171Z,99.90
2022-10-24T11:10:52.924Z,99.90
2022-10-24T11:13:40.747Z,99.90
2022-10-24T11:16:14.217Z,99.90
2022-10-24T11:18:46.418Z,99.90
2022-10-24T11:21:16.068Z,99.90
2022-10-24T11:24:13.740Z,99.90
2022-10-24T11:26:43.513Z,99.90
2022-10-24T11:29:31.667Z,99.90
2022-10-24T11:31:58.299Z,99.90
2022-10-24T11:34:50.718Z,99.90
2022-10-24T11:37:34.237Z,99.90
2022-10-24T11:40:22.466Z,99.90
2022-10-24T11:43:13.457Z,99.90
2022-10-24T11:45:43.465Z,99.90
2022-10-24T11:48:11.629Z,99.90
2022-10-24T11:51:06.205Z,99.90
2022-10-24T11:53:32.840Z,99.90
2022-10-24T11:56:14.283Z,99.90
2022-10-24T11:59:01.307Z,99.90
2022-10-24T12:01:33.949Z,99.90
2022-10-24T12:04:28.707Z,99.90
2022-10-24T12:06:58.415Z,99.90
2022-10-24T12:09:52.019Z,99.90
2022-10-24T12:12:42.858Z,99.90
2022-10-24T12:15:35.471Z,99.90
2022-10-24T12:18:06.111Z,99.90
2022-10-24T12:20:33.452Z,99.90
2022-10-24T12:23:02.350Z,99.90
2022-10-24T12:25:37.055Z,99.90
2022-10-24T12:28:25.406Z,99.90
2022-10-24T12:31:22.285Z,99.90
2022-10-24T12:34:16.731Z,99.90
2022-10-24T12:37:05.222Z,99.90
2022-10-24T12:39:47.141Z,99.90
2022-10-24T12:42:22.029Z,99.90
2022-10-24T12:44:50.824Z,99.90
2022-10-24T12:47:34.563Z,99.90
2022-10-24T12:50:36.412Z,99.90
2022-10-24T12:53:05.680Z,99.90
2022-10-24T12:55:39.715Z,99.90
2022-10-24T12:58:28.647Z,99.90
2022-10-24T13:01:01.690Z,99.90
2022-10-24T13:03:53.003Z,99.90
2022-10-24T13:06:31.620Z,99.90
2022-10-24T13:09:13.555Z,99.90
2022-10-24T13:12:01.027Z,99.90
2022-10-24T13:14:48.293Z,99.90
2022-10-24T13:17:20.952Z,99.90
2022-10-24T13:20:21.952Z,99.90
2022-10-24T13:22:50.923Z,99.90
2022-10-24T13:25:33.570Z,99.90
2022-10-24T13:28:25.194Z,99.90
2022-10-24T13:31:17.570Z,99.90
2022-10-24T13:33:46.349Z,99.90
2022-10-24T13:36:23.125Z,99.50
2022-10-24T13:39:02.591Z,99.10
2022-10-24T13:41:35.369Z,98.60
2022-10-24T13:44:26.409Z,98.40
2022-10-24T13:46:55.448Z,98.80
2022-10-24T13:49:48.513Z,97.90
2022-10-24T13:52:24.544Z,98.30
2022-10-24T13:55:14.617Z,98.00
2022-10-24T13:57:53.497Z,98.20
2022-10-24T14:00:28.547Z,98.30
2022-10-24T14:02:56.223Z,97.90
2022-10-24T14:05:36.985Z,97.50
2022-10-24T14:08:05.754Z,98.00
2022-10-24T14:10:32.688Z,98.40
2022-10-24T14:13:00.180Z,98.80
2022-10-24T14:15:35.743Z,97.60
2022-10-24T14:18:07.211Z,97.20
2022-10-24T14:20:36.119Z,98.50
2022-10-24T14:23:15.235Z,97.10
2022-10-24T14:25:41.957Z,97.60
2022-10-24T14:28:17.153Z,96.70
2022-10-24T14:31:04.349Z,96.90
2022-10-24T14:33:52.730Z,96.60
2022-10-24T14:36:21.717Z,96.70
2022-10-24T14:38:52.353Z,96.50
2022-10-24T14:41:21.061Z,96.70
2022-10-24T14:43:47.870Z,96.90
2022-10-24T14:46:14.504Z,97.20
2022-10-24T14:48:47.274Z,97.70
2022-10-24T14:51:38.662Z,97.20
2022-10-24T14:54:16.924Z,97.50
2022-10-24T14:56:43.720Z,97.20
2022-10-24T14:59:29.880Z,97.00
2022-10-24T15:02:20.533Z,97.80
2022-10-24T15:04:47.675Z,97.50
2022-10-24T15:07:23.457Z,97.80
2022-10-24T15:09:55.534Z,97.70
2022-10-24T15:12:40.863Z,97.90
2022-10-24T15:15:34.269Z,97.20
2022-10-24T15:18:08.872Z,97.20
2022-10-24T15:20:39.448Z,97.50
2022-10-24T15:23:08.078Z,97.80
2022-10-24T15:25:39.307Z,98.30
2022-10-24T15:28:49.241Z,97.90
2022-10-24T15:31:20.066Z,97.90
2022-10-24T15:33:47.847Z,97.30
2022-10-24T15:36:24.122Z,97.50
2022-10-24T15:38:56.312Z,97.20
2022-10-24T15:41:23.428Z,97.10
2022-10-24T15:43:50.613Z,97.10
2022-10-24T15:46:17.437Z,96.60
2022-10-24T15:48:44.934Z,96.70
2022-10-24T15:51:21.628Z,96.20
2022-10-24T15:53:50.172Z,96.20
2022-10-24T15:56:17.100Z,96.30
2022-10-24T15:58:44.105Z,96.10
2022-10-24T16:01:22.875Z,96.30
2022-10-24T16:03:49.663Z,96.20
2022-10-24T16:06:16.280Z,96.00
2022-10-24T16:08:42.980Z,95.60
2022-10-24T16:11:11.561Z,95.70
2022-10-24T16:13:38.519Z,95.70
2022-10-24T16:16:05.523Z,95.90
2022-10-24T16:18:32.170Z,95.90
2022-10-24T16:20:59.743Z,95.70
2022-10-24T16:23:27.259Z,95.60
2022-10-24T16:25:54.300Z,96.10
2022-10-24T16:28:23.871Z,95.80
2022-10-24T16:30:50.706Z,96.00
2022-10-24T16:33:20.012Z,96.10
2022-10-24T16:35:50.952Z,96.00
2022-10-24T16:38:17.817Z,95.80
2022-10-24T16:40:47.120Z,95.30
2022-10-24T16:43:16.726Z,95.70
2022-10-24T16:45:43.553Z,95.60
2022-10-24T16:48:10.926Z,95.80
2022-10-24T16:50:41.557Z,96.00
2022-10-24T16:53:08.770Z,96.00
2022-10-24T16:55:35.547Z,96.00
2022-10-24T16:58:02.490Z,95.90
2022-10-24T17:00:30.285Z,96.00
2022-10-24T17:02:58.064Z,96.10
2022-10-24T17:05:27.312Z,96.20
2022-10-24T17:07:53.978Z,96.10
2022-10-24T17:10:23.804Z,95.90
2022-10-24T17:12:52.041Z,96.00
2022-10-24T17:15:21.951Z,95.80
2022-10-24T17:17:49.975Z,95.90
2022-10-24T17:20:17.257Z,95.80
2022-10-24T17:22:45.342Z,95.80
2022-10-24T17:25:24.962Z,95.70
2022-10-24T17:27:52.391Z,95.90
2022-10-24T17:30:32.109Z,96.00
2022-10-24T17:33:02.355Z,96.00
2022-10-24T17:35:30.436Z,96.30
2022-10-24T17:38:03.079Z,96.60
2022-10-24T17:40:45.154Z,96.40
2022-10-24T17:43:20.825Z,96.20
2022-10-24T17:45:48.005Z,96.30
2022-10-24T17:48:14.976Z,96.30
2022-10-24T17:50:42.623Z,96.50
2022-10-24T17:53:12.611Z,96.50
2022-10-24T17:55:46.078Z,96.40
2022-10-24T17:58:14.335Z,96.50
2022-10-24T18:00:41.213Z,96.90
2022-10-24T18:03:08.924Z,97.30
2022-10-24T18:05:38.127Z,97.10
2022-10-24T18:08:07.018Z,97.20
2022-10-24T18:10:34.366Z,97.20
2022-10-24T18:13:01.864Z,96.70
2022-10-24T18:15:28.722Z,96.80
2022-10-24T18:17:55.573Z,97.30
2022-10-24T18:20:22.512Z,97.70
2022-10-24T18:22:49.602Z,98.20
2022-10-24T18:25:20.307Z,98.20
2022-10-24T18:27:50.287Z,98.40
2022-10-24T18:30:19.195Z,98.20
2022-10-24T18:32:46.537Z,98.60
2022-10-24T18:35:13.626Z,99.90
2022-10-24T18:37:40.395Z,99.90
2022-10-24T18:40:08.098Z,99.90
2022-10-24T18:43:05.196Z,98.50
2022-10-24T18:45:32.468Z,97.40
2022-10-24T18:47:59.835Z,97.00
2022-10-24T18:50:26.831Z,96.20
2022-10-24T18:53:08.232Z,95.70
2022-10-24T18:55:35.740Z,95.40
2022-10-24T18:58:03.381Z,95.10
2022-10-24T19:00:32.887Z,95.10
2022-10-24T19:03:02.277Z,95.10
2022-10-24T19:05:54.716Z,95.50
2022-10-24T19:08:24.940Z,95.90
2022-10-24T19:10:52.928Z,96.40
2022-10-24T19:13:19.665Z,96.80
2022-10-24T19:15:53.578Z,96.90
2022-10-24T19:18:20.727Z,98.20
2022-10-24T19:20:47.497Z,99.20
2022-10-24T19:23:15.660Z,99.90
2022-10-24T19:25:42.533Z,99.90
2022-10-24T19:28:12.148Z,99.90
2022-10-24T19:30:42.198Z,99.90
2022-10-24T19:33:09.342Z,99.90
2022-10-24T19:35:41.851Z,99.90
2022-10-24T19:38:08.542Z,99.90
2022-10-24T19:40:35.224Z,99.90
2022-10-24T19:43:01.977Z,99.90
2022-10-24T19:45:28.689Z,99.90
2022-10-24T19:47:55.734Z,99.90
2022-10-24T19:50:22.648Z,99.90
2022-10-24T19:52:49.338Z,99.90
2022-10-24T19:55:16.114Z,99.90
2022-10-24T19:57:42.940Z,99.90
2022-10-24T20:00:10.349Z,99.90
2022-10-24T20:02:37.027Z,99.90
2022-10-24T20:05:03.930Z,99.90
2022-10-24T20:07:30.645Z,99.90
2022-10-24T20:09:57.317Z,99.90
2022-10-24T20:12:24.002Z,99.90
2022-10-24T20:14:50.729Z,99.90
2022-10-24T20:17:17.516Z,99.90
2022-10-24T20:19:44.279Z,99.90
2022-10-24T20:22:10.937Z,99.90
2022-10-24T20:24:37.650Z,99.90
2022-10-24T20:27:04.454Z,99.90
2022-10-24T20:29:32.393Z,99.90
2022-10-24T20:31:59.755Z,99.90
2022-10-24T20:34:26.491Z,99.90
2022-10-24T20:36:53.236Z,99.90
2022-10-24T20:39:22.641Z,99.90
2022-10-24T20:41:51.873Z,99.90
2022-10-24T20:44:21.425Z,99.90
2022-10-24T20:46:48.115Z,99.90
2022-10-24T20:49:14.904Z,99.90
2022-10-24T20:51:42.513Z,99.90
2022-10-24T20:54:10.461Z,99.90
2022-10-24T20:56:41.956Z,99.90
2022-10-24T20:59:11.825Z,99.90
2022-10-24T21:01:38.594Z,99.90
2022-10-24T21:04:05.545Z,99.90
2022-10-24T21:06:33.566Z,99.90
2022-10-24T21:11:31.691Z,99.90
2022-10-24T21:14:07.382Z,99.90
2022-10-24T21:16:34.644Z,99.90
2022-10-24T21:19:02.121Z,99.90
2022-10-24T21:21:28.985Z,99.90
2022-10-24T21:24:04.155Z,99.90
2022-10-24T21:26:39.517Z,99.90
2022-10-24T21:29:31.504Z,99.90
2022-10-24T21:31:53.657Z,99.90
2022-10-24T21:34:21.399Z,99.90
2022-10-24T21:36:48.410Z,99.90
2022-10-24T21:39:17.071Z,99.90
2022-10-24T21:41:44.235Z,99.90
2022-10-24T21:44:11.307Z,99.90
2022-10-24T21:46:38.043Z,99.90
2022-10-24T21:49:04.788Z,99.90
2022-10-24T21:51:33.973Z,99.90
2022-10-24T21:54:06.021Z,99.90
2022-10-24T21:56:36.635Z,99.90
2022-10-24T21:59:06.062Z,99.90
2022-10-24T22:01:37.785Z,99.90
2022-10-24T22:04:06.054Z,99.90
2022-10-24T22:06:34.610Z,99.90
2022-10-24T22:09:01.851Z,99.90
2022-10-24T22:11:30.705Z,99.90
2022-10-24T22:13:58.155Z,99.90
2022-10-24T22:16:29.352Z,99.90
2022-10-24T22:18:58.719Z,99.90
2022-10-24T22:21:31.401Z,99.90
2022-10-24T22:24:00.317Z,99.90
2022-10-24T22:26:27.596Z,99.90
2022-10-24T22:28:55.811Z,99.90
2022-10-24T22:31:23.889Z,99.90
2022-10-24T22:33:50.751Z,99.90
2022-10-24T22:36:35.103Z,99.90
2022-10-24T22:39:02.243Z,99.90
2022-10-24T22:41:29.273Z,99.90
2022-10-24T22:43:56.152Z,99.90
2022-10-24T22:46:22.722Z,99.90
2022-10-24T22:48:52.173Z,99.90
2022-10-24T22:51:20.472Z,99.90
2022-10-24T22:53:47.493Z,99.90
2022-10-24T22:56:22.905Z,99.90
2022-10-24T22:58:49.996Z,99.90
2022-10-24T23:01:43.089Z,99.90
2022-10-24T23:04:27.834Z,99.90
2022-10-24T23:07:08.133Z,99.90
2022-10-24T23:09:34.733Z,99.90
2022-10-24T23:12:01.563Z,99.90
2022-10-24T23:14:28.479Z,99.90
2022-10-24T23:17:00.464Z,99.90
2022-10-24T23:19:29.583Z,99.90
2022-10-24T23:22:16.237Z,99.90
2022-10-24T23:24:43.113Z,99.90
2022-10-24T23:27:12.504Z,99.90
2022-10-24T23:29:44.167Z,99.90
2022-10-24T23:32:23.452Z,99.90
2022-10-24T23:34:51.682Z,99.90
2022-10-24T23:37:30.417Z,99.90
2022-10-24T23:39:57.745Z,99.90
2022-10-24T23:42:24.788Z,99.90
2022-10-24T23:44:51.911Z,99.90
2022-10-24T23:47:38.524Z,99.90
2022-10-24T23:50:43.421Z,99.90
2022-10-24T23:53:40.718Z,99.90
2022-10-24T23:56:13.739Z,99.90
2022-10-24T23:58:40.411Z,99.90
